Time;durP1;ratioP1;P1;durP2;ratioP2;P2;SDS_P1;SDS_P2;PMS_P1;PMS_P2;Temp;Humidity;BMP_temperature;BMP_pressure;BME280_temperature;BME280_humidity;BME280_pressure;Samples;Min_cycle;Max_cycle;Signal;HPM_P1;HPM_P2
2023/01/08 00:02:04;;;;;;;36.57;23.30;;;9.40;99.90;;;;;;10077762;29;20244;-85
2023/01/08 00:07:07;;;;;;;35.13;24.07;;;8.80;99.90;;;;;;10058352;29;20815;-84
2023/01/08 00:12:09;;;;;;;39.63;26.00;;;8.00;99.90;;;;;;10056610;29;20249;-84
2023/01/08 00:17:12;;;;;;;40.00;26.17;;;7.30;99.90;;;;;;10078082;29;20240;-84
2023/01/08 00:22:14;;;;;;;39.70;25.87;;;6.70;99.90;;;;;;10070893;29;20270;-84
2023/01/08 00:27:17;;;;;;;26.13;15.07;;;6.90;99.90;;;;;;10056146;29;20330;-85
2023/01/08 00:32:20;;;;;;;36.70;23.77;;;7.10;99.90;;;;;;10059044;29;20234;-84
2023/01/08 00:37:22;;;;;;;30.90;20.40;;;8.00;99.90;;;;;;10055157;29;20278;-85
2023/01/08 00:42:25;;;;;;;28.03;17.23;;;8.60;99.90;;;;;;10054992;29;20314;-84
2023/01/08 00:47:27;;;;;;;32.20;21.03;;;9.10;99.90;;;;;;10055845;29;20261;-84
2023/01/08 00:52:29;;;;;;;40.40;25.80;;;8.90;99.90;;;;;;10038249;29;20298;-84
2023/01/08 00:57:37;;;;;;;29.30;18.43;;;9.00;99.90;;;;;;10055104;29;20260;-84
2023/01/08 01:02:40;;;;;;;33.60;23.67;;;9.20;99.90;;;;;;10039275;29;20270;-84
2023/01/08 01:07:43;;;;;;;40.97;24.47;;;8.60;99.90;;;;;;10066113;29;20653;-84
2023/01/08 01:12:45;;;;;;;36.53;24.63;;;7.30;99.90;;;;;;10059041;29;20257;-85
2023/01/08 01:17:48;;;;;;;44.03;26.10;;;6.90;99.90;;;;;;10054431;29;20631;-84
2023/01/08 01:22:51;;;;;;;37.13;25.97;;;7.70;99.90;;;;;;10068366;29;20688;-85
2023/01/08 01:27:53;;;;;;;39.47;24.90;;;7.40;99.90;;;;;;10074610;29;20284;-84
2023/01/08 01:32:55;;;;;;;30.17;19.00;;;6.70;99.90;;;;;;10091861;29;20238;-85
2023/01/08 01:37:58;;;;;;;38.70;25.83;;;6.70;99.90;;;;;;10091678;29;20750;-84
2023/01/08 01:43:00;;;;;;;37.87;26.33;;;6.80;99.90;;;;;;10065860;29;20249;-84
2023/01/08 01:48:09;;;;;;;42.27;25.10;;;6.70;99.90;;;;;;10067658;29;20306;-84
2023/01/08 01:53:23;;;;;;;35.20;23.07;;;7.20;99.90;;;;;;10053464;29;20241;-85
2023/01/08 01:58:29;;;;;;;30.97;18.70;;;7.00;99.90;;;;;;10053121;29;20312;-83
2023/01/08 02:03:37;;;;;;;43.03;26.20;;;7.10;99.90;;;;;;10082479;29;20302;-84
2023/01/08 02:08:49;;;;;;;43.53;26.77;;;7.10;99.90;;;;;;10073132;29;20265;-84
2023/01/08 02:14:00;;;;;;;29.20;18.83;;;6.60;99.90;;;;;;10090831;29;20237;-84
2023/01/08 02:19:21;;;;;;;41.83;26.87;;;6.70;99.90;;;;;;10091229;29;20236;-84
2023/01/08 02:24:49;;;;;;;28.10;19.67;;;6.80;99.90;;;;;;10070316;29;20282;-85
2023/01/08 02:29:53;;;;;;;38.67;24.97;;;7.10;99.90;;;;;;10077614;29;20300;-84
2023/01/08 02:34:56;;;;;;;35.33;23.43;;;6.30;99.90;;;;;;10089472;29;20245;-84
2023/01/08 02:39:58;;;;;;;41.93;25.23;;;6.40;99.90;;;;;;10089042;29;20717;-84
2023/01/08 02:45:03;;;;;;;31.83;22.60;;;6.40;99.90;;;;;;10084315;29;20697;-85
2023/01/08 02:50:30;;;;;;;31.27;21.33;;;6.10;99.90;;;;;;10052410;29;20304;-84
2023/01/08 02:55:36;;;;;;;36.43;24.83;;;6.80;99.90;;;;;;10051184;29;20250;-84
2023/01/08 03:00:41;;;;;;;33.70;24.00;;;5.90;99.90;;;;;;10052328;29;20266;-84
2023/01/08 03:05:48;;;;;;;37.23;23.77;;;5.70;99.90;;;;;;10057073;29;20263;-84
2023/01/08 03:11:04;;;;;;;41.13;27.33;;;5.70;99.90;;;;;;10089839;29;20319;-84
2023/01/08 03:16:14;;;;;;;35.70;26.30;;;6.10;99.90;;;;;;10066666;29;20248;-84
2023/01/08 03:21:20;;;;;;;38.27;26.37;;;5.80;99.90;;;;;;10064795;29;20483;-84
2023/01/08 03:26:25;;;;;;;37.50;25.47;;;5.60;99.90;;;;;;10053887;29;20257;-84
2023/01/08 03:31:29;;;;;;;34.77;22.97;;;5.60;99.90;;;;;;10088267;29;20241;-84
2023/01/08 03:36:34;;;;;;;24.53;16.73;;;6.80;99.90;;;;;;10043526;29;20272;-84
2023/01/08 03:41:36;;;;;;;34.13;23.80;;;6.90;99.90;;;;;;10066524;29;20276;-84
2023/01/08 03:46:44;;;;;;;26.00;17.60;;;7.00;99.90;;;;;;10085878;29;20242;-84
2023/01/08 03:51:46;;;;;;;23.57;16.90;;;7.10;99.90;;;;;;10056930;29;20261;-84
2023/01/08 03:56:49;;;;;;;25.00;17.33;;;7.20;99.90;;;;;;10057314;29;20273;-84
2023/01/08 04:01:52;;;;;;;28.77;19.03;;;7.30;99.90;;;;;;10046693;29;20238;-85
2023/01/08 04:06:54;;;;;;;32.60;20.90;;;6.90;99.90;;;;;;10095128;29;20336;-84
2023/01/08 04:11:57;;;;;;;32.57;23.40;;;6.40;99.90;;;;;;10095147;29;20242;-84
2023/01/08 04:17:00;;;;;;;28.03;18.60;;;6.80;99.90;;;;;;10080550;29;20630;-84
2023/01/08 04:22:02;;;;;;;28.00;18.73;;;6.40;99.90;;;;;;10064388;29;20233;-85
2023/01/08 04:27:05;;;;;;;31.63;21.33;;;6.60;99.90;;;;;;10080034;29;20659;-84
2023/01/08 04:32:07;;;;;;;32.97;20.27;;;6.10;99.90;;;;;;10039398;29;20301;-84
2023/01/08 04:37:10;;;;;;;28.90;19.07;;;6.80;99.90;;;;;;10042032;29;20249;-84
2023/01/08 04:42:12;;;;;;;28.73;20.67;;;7.40;99.90;;;;;;10088200;29;20249;-86
2023/01/08 04:47:15;;;;;;;25.57;18.97;;;7.80;99.90;;;;;;10074547;29;20251;-86
2023/01/08 04:52:18;;;;;;;30.53;21.53;;;7.40;99.90;;;;;;10105281;29;20678;-87
2023/01/08 04:57:20;;;;;;;36.57;25.33;;;8.30;99.90;;;;;;10125035;29;20269;-86
2023/01/08 05:02:23;;;;;;;36.80;23.83;;;8.00;99.90;;;;;;10128572;29;20709;-87
2023/01/08 05:07:26;;;;;;;20.00;15.00;;;7.70;99.90;;;;;;10127681;29;20311;-87
2023/01/08 05:12:28;;;;;;;20.03;14.90;;;7.60;99.90;;;;;;10110378;29;20247;-87
2023/01/08 05:17:31;;;;;;;34.13;25.27;;;7.40;99.90;;;;;;10096203;29;20240;-86
2023/01/08 05:22:34;;;;;;;32.53;22.63;;;6.80;99.90;;;;;;10113057;29;20240;-86
2023/01/08 05:27:36;;;;;;;33.97;23.13;;;6.50;99.90;;;;;;10125861;29;20259;-87
2023/01/08 05:32:39;;;;;;;37.03;25.13;;;6.10;99.90;;;;;;10113423;29;20860;-87
2023/01/08 05:37:41;;;;;;;32.60;23.20;;;6.50;99.90;;;;;;10117028;29;20271;-86
2023/01/08 05:42:44;;;;;;;36.00;24.63;;;6.50;99.90;;;;;;10081679;29;20236;-87
2023/01/08 05:47:46;;;;;;;34.63;24.10;;;6.40;99.90;;;;;;10125139;29;20264;-87
2023/01/08 05:52:49;;;;;;;36.60;24.03;;;6.60;99.90;;;;;;10123476;29;20240;-87
2023/01/08 05:57:51;;;;;;;36.47;23.03;;;7.40;99.90;;;;;;10127727;29;20264;-87
2023/01/08 06:02:54;;;;;;;31.83;21.43;;;6.90;99.90;;;;;;10125166;29;20310;-86
2023/01/08 06:08:00;;;;;;;22.37;15.27;;;7.00;99.90;;;;;;10127524;29;20310;-86
2023/01/08 06:13:06;;;;;;;24.07;16.90;;;;;;;;;;10120684;29;20283;-86
2023/01/08 06:18:08;;;;;;;28.73;19.57;;;8.00;99.90;;;;;;10097367;29;20664;-86
2023/01/08 06:23:11;;;;;;;25.17;17.67;;;7.10;99.90;;;;;;10090888;29;20747;-86
2023/01/08 06:28:13;;;;;;;22.77;17.13;;;7.80;99.90;;;;;;10066637;29;20325;-86
2023/01/08 06:33:17;;;;;;;21.40;15.70;;;8.40;99.90;;;;;;10056425;29;20285;-86
2023/01/08 06:38:22;;;;;;;36.30;26.07;;;8.00;99.90;;;;;;10073985;29;20244;-86
2023/01/08 06:43:24;;;;;;;22.90;16.10;;;6.50;99.90;;;;;;10088018;29;20711;-87
2023/01/08 06:48:27;;;;;;;30.47;19.27;;;;;;;;;;10053019;29;20273;-87
2023/01/08 06:53:30;;;;;;;26.63;18.93;;;7.20;99.90;;;;;;10052307;29;20705;-86
2023/01/08 06:58:32;;;;;;;24.70;18.20;;;6.80;99.90;;;;;;10035498;29;20782;-87
2023/01/08 07:03:35;;;;;;;26.03;17.83;;;7.90;99.90;;;;;;10060356;29;20231;-86
2023/01/08 07:08:37;;;;;;;24.07;16.57;;;7.60;99.90;;;;;;10060001;29;20256;-86
2023/01/08 07:13:40;;;;;;;22.53;16.23;;;7.20;99.90;;;;;;10089050;29;20248;-86
2023/01/08 07:18:43;;;;;;;21.10;14.60;;;7.90;99.90;;;;;;10076837;29;20279;-86
2023/01/08 07:23:48;;;;;;;21.83;14.37;;;8.50;99.90;;;;;;10081423;29;20237;-86
2023/01/08 07:28:50;;;;;;;43.63;26.77;;;8.60;99.90;;;;;;10042335;29;20265;-86
2023/01/08 07:33:53;;;;;;;30.77;21.17;;;7.50;99.90;;;;;;10041724;29;20289;-85
2023/01/08 07:38:55;;;;;;;17.50;11.07;;;7.40;99.90;;;;;;10071481;29;20293;-84
2023/01/08 07:43:58;;;;;;;28.67;20.10;;;8.00;99.90;;;;;;10057222;29;20257;-85
2023/01/08 07:49:00;;;;;;;28.13;20.70;;;8.80;99.90;;;;;;10058129;29;20277;-86
2023/01/08 07:54:03;;;;;;;21.20;14.07;;;7.90;99.90;;;;;;10087758;29;20663;-86
2023/01/08 07:59:05;;;;;;;22.70;15.23;;;8.00;99.90;;;;;;10093047;29;20278;-85
2023/01/08 08:04:08;;;;;;;24.70;17.93;;;8.30;99.90;;;;;;10064352;29;20246;-85
2023/01/08 08:09:11;;;;;;;23.13;15.90;;;8.70;99.90;;;;;;10095596;29;20264;-86
2023/01/08 08:14:14;;;;;;;21.07;13.30;;;8.90;99.90;;;;;;10068398;29;20233;-86
2023/01/08 08:19:17;;;;;;;34.73;22.17;;;9.00;99.90;;;;;;10049025;29;20689;-85
2023/01/08 08:24:19;;;;;;;29.93;21.37;;;8.70;99.90;;;;;;10093981;29;20242;-86
2023/01/08 08:29:22;;;;;;;34.23;23.20;;;8.40;99.90;;;;;;10094244;29;20774;-86
2023/01/08 08:34:24;;;;;;;28.37;20.80;;;7.60;99.90;;;;;;10093978;29;20233;-86
2023/01/08 08:39:27;;;;;;;30.33;21.43;;;7.40;99.90;;;;;;10059307;29;20767;-88
2023/01/08 08:44:30;;;;;;;35.80;22.73;;;7.40;99.90;;;;;;10072049;29;20241;-86
2023/01/08 08:49:32;;;;;;;26.17;18.00;;;7.30;99.90;;;;;;10059928;29;20264;-86
2023/01/08 08:54:37;;;;;;;25.30;18.47;;;8.10;99.90;;;;;;10041607;29;20237;-86
2023/01/08 08:59:40;;;;;;;35.57;24.10;;;8.80;99.90;;;;;;10053344;29;20227;-86
2023/01/08 09:04:42;;;;;;;17.47;12.33;;;8.80;99.90;;;;;;10057352;29;20299;-86
2023/01/08 09:09:44;;;;;;;25.33;18.07;;;9.10;99.90;;;;;;10056178;29;20258;-86
2023/01/08 09:14:50;;;;;;;24.50;17.37;;;9.90;99.90;;;;;;10059426;29;20308;-86
2023/01/08 09:19:53;;;;;;;28.97;20.20;;;9.60;99.90;;;;;;10093589;29;20691;-86
2023/01/08 09:24:55;;;;;;;23.57;16.40;;;9.40;99.90;;;;;;10066433;29;20640;-86
2023/01/08 09:29:58;;;;;;;25.90;19.67;;;9.70;99.90;;;;;;10054352;29;20261;-86
2023/01/08 09:35:00;;;;;;;29.20;20.47;;;9.50;99.90;;;;;;10054266;29;20238;-85
2023/01/08 09:40:03;;;;;;;25.27;17.47;;;9.60;99.90;;;;;;10075266;29;20657;-84
2023/01/08 09:45:21;;;;;;;31.73;21.33;;;9.80;99.90;;;;;;10087361;29;20627;-85
2023/01/08 09:50:27;;;;;;;33.80;21.67;;;10.20;99.90;;;;;;10046342;29;20319;-85
2023/01/08 09:55:33;;;;;;;31.53;21.10;;;9.80;99.90;;;;;;10083610;29;20881;-85
2023/01/08 10:00:35;;;;;;;21.13;14.77;;;9.90;99.90;;;;;;10053983;29;20241;-84
2023/01/08 10:05:40;;;;;;;26.03;18.57;;;9.80;99.90;;;;;;10083510;29;20232;-84
2023/01/08 10:10:43;;;;;;;18.00;13.40;;;9.90;99.90;;;;;;10090325;29;20678;-84
2023/01/08 10:15:46;;;;;;;27.63;19.07;;;10.00;99.90;;;;;;10068896;29;20265;-84
2023/01/08 10:20:49;;;;;;;36.90;26.93;;;9.60;99.90;;;;;;10053493;29;20747;-83
2023/01/08 10:25:59;;;;;;;40.33;29.73;;;8.10;99.90;;;;;;10058278;29;20237;-84
2023/01/08 10:31:14;;;;;;;43.97;24.20;;;6.60;99.90;;;;;;10073057;29;20257;-90
2023/01/08 10:36:22;;;;;;;31.40;21.70;;;7.90;99.90;;;;;;10074136;29;20308;-90
2023/01/08 10:41:26;;;;;;;30.97;20.93;;;;;;;;;;10073904;29;20301;-90
2023/01/08 10:46:47;;;;;;;29.93;20.57;;;8.40;99.90;;;;;;10091154;29;20236;-89
2023/01/08 10:51:51;;;;;;;28.80;19.80;;;8.30;99.90;;;;;;10073600;29;20789;-90
2023/01/08 10:56:54;;;;;;;29.93;21.90;;;8.30;99.90;;;;;;10075617;29;20296;-90
2023/01/08 11:01:57;;;;;;;31.73;21.47;;;8.30;99.90;;;;;;10081347;29;20232;-90
2023/01/08 11:07:03;;;;;;;30.20;21.23;;;8.40;99.90;;;;;;10080810;29;20320;-90
2023/01/08 11:12:20;;;;;;;28.40;19.27;;;8.40;99.90;;;;;;10097602;29;20280;-90
2023/01/08 11:17:27;;;;;;;26.83;18.40;;;8.40;99.90;;;;;;10097649;29;20774;-91
2023/01/08 11:22:30;;;;;;;31.13;21.10;;;8.60;99.90;;;;;;10081195;29;20252;-91
2023/01/08 11:27:39;;;;;;;27.17;19.93;;;8.80;99.90;;;;;;10096807;29;20665;-91
2023/01/08 11:32:52;;;;;;;31.03;20.67;;;8.90;99.90;;;;;;10097353;29;20293;-91
2023/01/08 11:38:00;;;;;;;33.40;20.90;;;8.90;99.90;;;;;;10080432;29;20248;-91
2023/01/08 11:43:25;;;;;;;24.67;17.40;;;9.20;99.90;;;;;;10081385;29;20588;-91
2023/01/08 11:48:52;;;;;;;30.50;20.00;;;8.90;99.90;;;;;;10079985;29;20280;-92
2023/01/08 11:54:22;;;;;;;23.40;16.87;;;8.90;99.90;;;;;;10096490;29;20916;-91
2023/01/08 11:59:27;;;;;;;26.03;18.57;;;9.00;99.90;;;;;;10079130;29;20249;-91
2023/01/08 12:04:39;;;;;;;28.73;20.83;;;8.90;99.90;;;;;;10079949;29;20650;-91
2023/01/08 12:10:05;;;;;;;19.60;15.13;;;8.80;99.90;;;;;;10078851;29;20260;-91
2023/01/08 12:15:11;;;;;;;26.60;18.70;;;9.30;99.90;;;;;;10079058;29;20770;-91
2023/01/08 12:20:46;;;;;;;23.03;16.07;;;9.90;99.90;;;;;;10095194;29;20240;-91
2023/01/08 12:25:48;;;;;;;24.87;17.87;;;9.60;99.90;;;;;;10078719;29;20308;-91
2023/01/08 12:30:51;;;;;;;29.83;19.93;;;10.00;99.90;;;;;;10078564;29;20650;-91
2023/01/08 12:35:56;;;;;;;29.63;20.53;;;10.00;99.90;;;;;;10078812;29;20261;-91
2023/01/08 12:41:17;;;;;;;30.17;19.33;;;10.30;99.90;;;;;;10056860;29;20265;-88
2023/01/08 12:46:21;;;;;;;29.77;18.50;;;10.30;99.90;;;;;;10062759;29;20905;-89
2023/01/08 12:51:36;;;;;;;28.47;19.53;;;10.10;99.90;;;;;;10096533;29;20304;-91
2023/01/08 12:57:09;;;;;;;28.47;20.30;;;10.00;99.90;;;;;;10082782;29;20240;-89
2023/01/08 13:02:17;;;;;;;34.10;20.87;;;9.70;99.90;;;;;;10093246;29;20312;-89
2023/01/08 13:07:34;;;;;;;27.33;17.97;;;9.90;99.90;;;;;;10092117;29;20289;-90
2023/01/08 13:12:39;;;;;;;28.67;18.97;;;9.50;99.90;;;;;;10059250;29;20304;-90
2023/01/08 13:17:48;;;;;;;29.93;17.67;;;9.50;99.90;;;;;;10075743;29;20273;-90
2023/01/08 13:22:59;;;;;;;29.00;19.00;;;9.50;99.90;;;;;;10049054;29;20767;-90
2023/01/08 13:28:28;;;;;;;25.67;16.17;;;9.60;99.90;;;;;;10069175;29;20252;-90
2023/01/08 13:33:33;;;;;;;21.73;15.63;;;10.30;99.90;;;;;;10074058;29;20252;-90
2023/01/08 13:38:36;;;;;;;25.90;17.17;;;10.70;99.90;;;;;;10053462;29;20245;-90
2023/01/08 13:43:40;;;;;;;27.50;15.33;;;10.70;99.90;;;;;;10036454;29;20642;-90
2023/01/08 13:49:05;;;;;;;24.83;16.73;;;11.30;99.90;;;;;;10037974;29;20821;-90
2023/01/08 13:54:11;;;;;;;23.47;17.60;;;11.30;99.90;;;;;;10075979;29;20288;-90
2023/01/08 13:59:46;;;;;;;24.13;16.73;;;11.10;99.90;;;;;;10091846;29;20249;-91
2023/01/08 14:04:50;;;;;;;25.33;16.73;;;11.10;99.90;;;;;;10090670;29;20248;-90
2023/01/08 14:10:04;;;;;;;19.93;12.87;;;11.30;99.90;;;;;;10063566;29;20321;-90
2023/01/08 14:15:12;;;;;;;29.93;19.23;;;11.40;99.90;;;;;;10046951;29;20236;-90
2023/01/08 14:20:28;;;;;;;22.30;15.83;;;11.00;99.90;;;;;;9747720;29;10000683;-90
2023/01/08 14:25:30;;;;;;;27.17;17.97;;;11.10;99.90;;;;;;10056538;29;20245;-90
2023/01/08 14:30:34;;;;;;;28.97;19.80;;;10.40;99.90;;;;;;10061692;29;20260;-90
2023/01/08 14:35:37;;;;;;;27.43;17.93;;;10.10;99.90;;;;;;10071257;29;20288;-89
2023/01/08 14:40:46;;;;;;;25.60;18.37;;;10.00;99.90;;;;;;10086347;29;20666;-90
2023/01/08 14:45:51;;;;;;;22.73;15.87;;;9.90;99.90;;;;;;10036438;29;20713;-89
2023/01/08 14:51:15;;;;;;;28.00;19.10;;;9.50;99.90;;;;;;10081580;29;20261;-90
2023/01/08 14:56:34;;;;;;;29.23;19.27;;;9.40;99.90;;;;;;10085268;29;20492;-89
2023/01/08 15:01:38;;;;;;;22.83;16.73;;;9.30;99.90;;;;;;10086354;29;20197;-89
2023/01/08 15:07:05;;;;;;;31.87;21.47;;;9.40;99.90;;;;;;10078308;29;20916;-90
2023/01/08 15:12:32;;;;;;;36.10;21.53;;;8.90;99.90;;;;;;10081123;29;20228;-89
2023/01/08 15:17:35;;;;;;;35.27;22.50;;;8.60;99.90;;;;;;10087888;29;20205;-91
2023/01/08 15:22:42;;;;;;;35.30;19.90;;;8.50;99.90;;;;;;10086217;29;20316;-90
2023/01/08 15:28:00;;;;;;;47.63;30.50;;;8.80;99.90;;;;;;9721515;29;10000578;-90
2023/01/08 15:33:08;;;;;;;57.00;35.87;;;8.40;99.90;;;;;;10049191;29;20493;-89
2023/01/08 15:38:12;;;;;;;61.67;38.57;;;7.00;99.90;;;;;;10066847;29;20201;-90
2023/01/08 15:43:17;;;;;;;61.57;38.67;;;6.60;99.90;;;;;;10079589;29;20662;-90
2023/01/08 15:48:19;;;;;;;67.93;40.50;;;6.20;99.90;;;;;;10082656;29;20341;-90
2023/01/08 15:53:22;;;;;;;63.60;38.80;;;6.00;99.90;;;;;;10068922;29;20234;-90
2023/01/08 15:58:26;;;;;;;67.67;40.23;;;5.80;99.90;;;;;;10076525;29;20236;-88
2023/01/08 16:03:30;;;;;;;78.77;47.13;;;;;;;;;;10068528;29;20253;-89
2023/01/08 16:08:32;;;;;;;76.90;45.20;;;5.50;99.90;;;;;;10063784;29;20269;-88
2023/01/08 16:13:36;;;;;;;79.13;50.67;;;;;;;;;;10102395;29;20216;-88
2023/01/08 16:18:38;;;;;;;87.20;55.93;;;5.20;99.90;;;;;;10083767;29;20229;-88
2023/01/08 16:23:41;;;;;;;96.10;57.60;;;5.10;99.90;;;;;;10078899;29;20213;-88
2023/01/08 16:28:47;;;;;;;87.20;55.20;;;5.00;99.90;;;;;;10085785;29;20232;-89
2023/01/08 16:33:49;;;;;;;115.10;71.20;;;5.00;99.90;;;;;;10079451;29;20217;-88
2023/01/08 16:44:28;;;;;;;106.80;64.90;;;4.80;99.90;;;;;;10024263;29;20226;-88
2023/01/08 16:49:32;;;;;;;84.73;51.60;;;4.80;99.90;;;;;;10027843;29;20283;-89
2023/01/08 16:54:37;;;;;;;89.07;55.93;;;;;;;;;;10014715;29;20249;-89
2023/01/08 16:59:40;;;;;;;85.17;54.93;;;4.70;99.90;;;;;;10015427;29;20243;-87
2023/01/08 17:04:43;;;;;;;96.57;56.73;;;4.60;99.90;;;;;;10021145;29;20266;-87
2023/01/08 17:09:46;;;;;;;89.87;56.20;;;4.60;99.90;;;;;;10024860;29;20270;-87
2023/01/08 17:14:49;;;;;;;92.37;57.60;;;4.60;99.90;;;;;;10025058;29;20235;-89
2023/01/08 17:19:52;;;;;;;94.30;55.83;;;4.60;99.90;;;;;;10026303;29;20285;-86
2023/01/08 17:24:55;;;;;;;90.90;61.30;;;4.70;99.90;;;;;;10044878;29;20448;-89
2023/01/08 17:29:57;;;;;;;113.53;66.00;;;4.70;99.90;;;;;;10062335;29;20509;-87
2023/01/08 17:35:00;;;;;;;70.37;45.10;;;4.70;99.90;;;;;;9983628;29;20205;-90
2023/01/08 17:40:04;;;;;;;72.57;46.73;;;4.70;99.90;;;;;;9993825;29;20621;-92
2023/01/08 17:45:07;;;;;;;75.20;47.07;;;4.60;99.90;;;;;;9990883;29;20638;-91
2023/01/08 17:50:10;;;;;;;74.37;49.60;;;4.60;99.90;;;;;;10005577;29;20252;-93
2023/01/08 17:55:12;;;;;;;74.57;47.27;;;4.60;99.90;;;;;;9980916;29;20203;-88
2023/01/08 18:00:16;;;;;;;118.47;69.07;;;4.50;99.90;;;;;;10002873;29;20591;-88
2023/01/08 18:05:19;;;;;;;99.33;62.43;;;4.50;99.90;;;;;;10021803;29;20213;-92
2023/01/08 18:10:22;;;;;;;75.27;47.83;;;4.60;99.90;;;;;;9983158;29;20234;-88
2023/01/08 18:15:24;;;;;;;78.87;49.87;;;4.60;99.90;;;;;;9989705;29;20214;-89
2023/01/08 18:20:27;;;;;;;90.67;52.73;;;4.60;99.90;;;;;;10023366;29;20271;-90
2023/01/08 18:25:30;;;;;;;76.50;46.97;;;4.60;99.90;;;;;;10026881;29;20213;-88
2023/01/08 18:30:32;;;;;;;70.50;44.07;;;4.60;99.90;;;;;;10006523;29;20254;-88
2023/01/08 18:35:35;;;;;;;75.03;46.58;;;4.60;99.90;;;;;;10035302;29;20540;-87
2023/01/08 18:40:37;;;;;;;80.63;54.00;;;4.60;99.90;;;;;;10055583;29;20502;-89
2023/01/08 18:45:40;;;;;;;69.50;43.63;;;4.60;99.90;;;;;;10063499;29;20205;-87
2023/01/08 18:50:43;;;;;;;78.77;46.37;;;4.60;99.90;;;;;;10033111;29;20222;-89
2023/01/08 18:55:46;;;;;;;75.13;42.53;;;4.60;99.90;;;;;;10063346;29;20201;-89
2023/01/08 19:00:48;;;;;;;71.20;40.83;;;4.50;99.90;;;;;;10063257;29;20219;-90
2023/01/08 19:05:51;;;;;;;67.17;40.63;;;4.50;99.90;;;;;;10052651;29;20193;-89
2023/01/08 19:10:54;;;;;;;73.17;41.30;;;4.50;99.90;;;;;;10020255;29;20242;-89
2023/01/08 19:15:59;;;;;;;69.43;38.80;;;4.50;99.90;;;;;;10006593;29;20186;-91
2023/01/08 19:21:08;;;;;;;59.03;38.40;;;4.40;99.90;;;;;;10032665;29;20223;-89
2023/01/08 19:26:13;;;;;;;67.40;40.10;;;4.40;99.90;;;;;;10058522;29;20262;-89
2023/01/08 19:31:17;;;;;;;48.47;28.73;;;4.40;99.90;;;;;;10033116;29;20230;-89
2023/01/08 19:36:21;;;;;;;42.90;24.53;;;4.50;99.90;;;;;;10041657;29;20190;-91
2023/01/08 19:46:47;;;;;;;31.33;18.80;;;6.70;99.90;;;;;;10042308;29;20220;-91
2023/01/08 19:51:51;;;;;;;41.57;24.37;;;6.70;99.90;;;;;;10030894;29;20295;-91
2023/01/08 19:56:54;;;;;;;34.50;20.87;;;6.90;99.90;;;;;;10031876;29;20229;-90
2023/01/08 20:01:56;;;;;;;38.73;22.50;;;6.90;99.90;;;;;;10032523;29;20194;-91
2023/01/08 20:06:59;;;;;;;36.10;21.13;;;7.30;99.90;;;;;;10037813;29;20221;-90
2023/01/08 20:12:03;;;;;;;27.70;16.37;;;7.90;99.90;;;;;;10031419;29;20237;-88
2023/01/08 20:17:05;;;;;;;31.93;19.77;;;7.70;99.90;;;;;;10021677;29;20214;-88
2023/01/08 20:22:08;;;;;;;29.20;18.60;;;8.20;99.90;;;;;;10046124;29;20438;-89
2023/01/08 20:27:10;;;;;;;34.80;21.00;;;7.90;99.90;;;;;;10025411;29;20224;-88
2023/01/08 20:32:13;;;;;;;39.87;23.33;;;7.80;99.90;;;;;;10032001;29;20264;-88
2023/01/08 20:37:16;;;;;;;37.63;21.67;;;;;;;;;;10031687;29;20324;-88
2023/01/08 20:42:18;;;;;;;34.67;22.67;;;7.20;99.90;;;;;;10031382;29;20272;-88
2023/01/08 20:47:35;;;;;;;32.60;20.30;;;7.30;99.90;;;;;;9994546;29;20195;-89
2023/01/08 20:52:37;;;;;;;33.73;19.87;;;7.40;99.90;;;;;;10005602;29;20210;-89
2023/01/08 20:57:40;;;;;;;28.77;18.33;;;7.50;99.90;;;;;;10032458;29;20215;-89
2023/01/08 21:02:43;;;;;;;37.07;22.80;;;7.80;99.90;;;;;;10031768;29;20199;-88
2023/01/08 21:07:45;;;;;;;35.43;22.27;;;8.20;99.90;;;;;;10030376;29;20216;-88
2023/01/08 21:12:48;;;;;;;33.63;21.83;;;7.90;99.90;;;;;;10028587;29;20249;-88
2023/01/08 21:17:51;;;;;;;29.93;19.73;;;7.30;99.90;;;;;;10031255;29;20196;-88
2023/01/08 21:22:53;;;;;;;37.20;22.87;;;7.40;99.90;;;;;;10031536;29;20213;-89
2023/01/08 21:27:56;;;;;;;40.90;22.90;;;7.30;99.90;;;;;;10031109;29;20196;-89
2023/01/08 21:32:58;;;;;;;33.93;19.17;;;7.60;99.90;;;;;;10013957;29;20256;-90
2023/01/08 21:38:01;;;;;;;33.13;20.13;;;8.20;99.90;;;;;;10030903;29;20224;-90
2023/01/08 21:48:27;;;;;;;51.03;31.00;;;6.10;99.90;;;;;;10051409;29;20190;-91
2023/01/08 21:53:30;;;;;;;54.70;33.17;;;5.10;99.90;;;;;;10041340;29;20230;-93
2023/01/08 22:04:11;;;;;;;40.30;20.73;;;4.30;99.90;;;;;;9925688;27;20293;-87
2023/01/08 22:09:13;;;;;;;37.17;19.87;;;5.30;99.90;;;;;;10101857;29;20218;-86
2023/01/08 22:14:16;;;;;;;38.20;23.27;;;6.60;99.90;;;;;;10076333;29;20608;-85
2023/01/08 22:19:18;;;;;;;39.93;23.87;;;6.50;99.90;;;;;;10058505;29;20559;-85
2023/01/08 22:24:21;;;;;;;37.80;22.90;;;6.20;99.90;;;;;;10063214;29;20206;-85
2023/01/08 22:29:24;;;;;;;34.63;20.63;;;6.20;99.90;;;;;;10062205;29;20246;-85
2023/01/08 22:34:30;;;;;;;37.03;22.40;;;6.70;99.90;;;;;;10060757;29;20301;-85
2023/01/08 22:39:32;;;;;;;38.47;21.97;;;6.60;99.90;;;;;;10045008;29;20199;-85
2023/01/08 22:44:35;;;;;;;38.60;24.43;;;6.60;99.90;;;;;;10059159;29;20206;-85
2023/01/08 22:49:40;;;;;;;37.73;23.30;;;6.70;99.90;;;;;;10059380;29;20279;-85
2023/01/08 22:54:43;;;;;;;39.17;23.83;;;6.80;99.90;;;;;;10042124;29;20242;-85
2023/01/08 22:59:45;;;;;;;35.40;22.83;;;7.00;99.90;;;;;;10051027;29;20226;-86
2023/01/08 23:04:52;;;;;;;34.93;21.90;;;7.00;99.90;;;;;;10058868;29;20205;-86
2023/01/08 23:09:55;;;;;;;35.63;23.00;;;6.90;99.90;;;;;;10058453;29;20235;-86
2023/01/08 23:14:57;;;;;;;37.67;22.17;;;6.70;99.90;;;;;;10044124;29;20206;-86
2023/01/08 23:20:01;;;;;;;24.90;16.60;;;6.80;99.90;;;;;;10044449;29;20684;-86
2023/01/08 23:25:04;;;;;;;36.20;22.70;;;7.50;99.90;;;;;;10054414;29;20764;-86
2023/01/08 23:30:08;;;;;;;35.47;22.90;;;7.80;99.90;;;;;;10059409;29;20217;-86
2023/01/08 23:35:10;;;;;;;24.73;17.77;;;7.50;99.90;;;;;;10059988;29;20262;-86
2023/01/08 23:40:13;;;;;;;33.77;23.33;;;7.80;99.90;;;;;;10057778;29;20214;-86
2023/01/08 23:45:15;;;;;;;28.77;18.67;;;7.90;99.90;;;;;;10053434;29;20214;-86
2023/01/08 23:50:18;;;;;;;29.23;19.77;;;7.70;99.90;;;;;;10054398;29;20293;-86
2023/01/08 23:55:20;;;;;;;34.10;21.97;;;7.40;99.90;;;;;;10037201;29;20206;-86
